Time;durP1;ratioP1;P1;durP2;ratioP2;P2;SDS_P1;SDS_P2;PMS_P1;PMS_P2;Temp;Humidity;BMP_temperature;BMP_pressure;BME280_temperature;BME280_humidity;BME280_pressure;Samples;Min_cycle;Max_cycle;Signal;HPM_P1;HPM_P2
2021/06/26 00:00:56;;;;;;;0.40;0.30;;;20.00;61.40;;;;;;5098605;28;20047;-70
2021/06/26 00:03:28;;;;;;;1.42;0.30;;;20.10;61.20;;;;;;5116672;28;20093;-70
2021/06/26 00:05:54;;;;;;;0.20;0.20;;;20.20;61.30;;;;;;5116954;28;20065;-70
2021/06/26 00:08:21;;;;;;;0.77;0.30;;;20.30;59.60;;;;;;5116959;28;20066;-70
2021/06/26 00:10:47;;;;;;;0.98;0.28;;;20.40;59.40;;;;;;5119071;28;20096;-70
2021/06/26 00:13:15;;;;;;;0.82;0.20;;;20.50;61.10;;;;;;5120725;28;20041;-70
2021/06/26 00:15:40;;;;;;;0.13;0.10;;;20.40;60.90;;;;;;5120689;28;20168;-69
2021/06/26 00:18:06;;;;;;;0.20;0.20;;;20.40;62.60;;;;;;5120630;28;20459;-70
2021/06/26 00:20:33;;;;;;;0.20;0.20;;;20.30;62.50;;;;;;5120324;28;20038;-70
2021/06/26 00:22:58;;;;;;;0.52;0.20;;;20.10;63.70;;;;;;5120119;28;20028;-70
2021/06/26 00:25:25;;;;;;;0.80;0.20;;;20.00;63.40;;;;;;5120470;28;20029;-70
2021/06/26 00:27:52;;;;;;;0.40;0.20;;;20.00;62.90;;;;;;5120408;28;20024;-70
2021/06/26 00:30:18;;;;;;;0.47;0.25;;;20.00;62.40;;;;;;5120419;28;20043;-70
2021/06/26 00:32:45;;;;;;;0.52;0.10;;;20.10;61.70;;;;;;5120339;28;20358;-69
2021/06/26 00:35:11;;;;;;;0.70;0.25;;;20.10;61.90;;;;;;5120293;28;20035;-70
2021/06/26 00:37:38;;;;;;;0.20;0.15;;;20.10;60.80;;;;;;5119787;28;20044;-70
2021/06/26 00:40:07;;;;;;;0.65;0.20;;;20.20;61.40;;;;;;5119894;28;20023;-70
2021/06/26 00:42:36;;;;;;;0.68;0.30;;;20.20;61.70;;;;;;5120006;28;20047;-70
2021/06/26 00:45:04;;;;;;;0.65;0.30;;;20.20;60.80;;;;;;5119818;28;20028;-70
2021/06/26 00:47:30;;;;;;;0.30;0.20;;;20.30;60.60;;;;;;5119703;28;20035;-70
2021/06/26 00:49:55;;;;;;;0.95;0.20;;;20.40;62.00;;;;;;5119713;28;20073;-70
2021/06/26 00:52:21;;;;;;;0.32;0.17;;;20.30;61.50;;;;;;5119651;28;20031;-70
2021/06/26 00:54:47;;;;;;;0.70;0.25;;;20.40;60.90;;;;;;5119641;28;20024;-70
2021/06/26 00:57:13;;;;;;;1.55;0.30;;;20.30;60.80;;;;;;5119852;28;20035;-70
2021/06/26 00:59:39;;;;;;;1.02;0.30;;;20.30;60.70;;;;;;5119514;28;20069;-70
2021/06/26 01:02:07;;;;;;;0.60;0.22;;;20.30;60.70;;;;;;5119387;28;20404;-70
2021/06/26 01:04:33;;;;;;;1.80;0.50;;;20.30;62.30;;;;;;5119772;28;20312;-70
2021/06/26 01:06:59;;;;;;;1.52;0.40;;;20.10;65.70;;;;;;5119649;28;20311;-70
2021/06/26 01:09:26;;;;;;;3.30;0.40;;;19.70;67.60;;;;;;5119587;28;20049;-70
2021/06/26 01:11:57;;;;;;;2.13;0.50;;;19.40;69.20;;;;;;5119615;28;20031;-70
2021/06/26 01:14:30;;;;;;;1.52;0.82;;;18.80;72.20;;;;;;5119778;28;20070;-72
2021/06/26 01:17:05;;;;;;;0.88;0.47;;;18.30;74.30;;;;;;5119172;28;20035;-71
2021/06/26 01:19:31;;;;;;;2.53;0.50;;;18.00;73.90;;;;;;5119197;28;20137;-70
2021/06/26 01:21:59;;;;;;;1.52;0.50;;;18.00;72.10;;;;;;5118206;28;20118;-72
2021/06/26 01:24:25;;;;;;;0.77;0.35;;;18.10;72.20;;;;;;5119443;28;20023;-70
2021/06/26 01:26:58;;;;;;;1.63;0.50;;;18.20;69.70;;;;;;5119241;28;20403;-72
2021/06/26 01:29:26;;;;;;;1.60;0.40;;;18.40;69.60;;;;;;5119223;28;20020;-70
2021/06/26 01:31:52;;;;;;;5.97;0.50;;;18.60;68.10;;;;;;5118881;28;20416;-70
2021/06/26 01:34:17;;;;;;;2.20;0.30;;;18.80;67.40;;;;;;5119225;28;20089;-70
2021/06/26 01:36:43;;;;;;;0.45;0.40;;;19.00;65.60;;;;;;5118850;28;20035;-70
2021/06/26 01:39:09;;;;;;;0.65;0.30;;;19.10;65.80;;;;;;5119123;28;20434;-70
2021/06/26 01:41:34;;;;;;;1.10;0.40;;;19.20;66.00;;;;;;5118919;28;20050;-70
2021/06/26 01:44:01;;;;;;;1.17;0.30;;;19.20;66.70;;;;;;5118972;28;20354;-70
2021/06/26 01:46:26;;;;;;;5.05;0.40;;;19.20;66.30;;;;;;5118889;28;20055;-70
2021/06/26 01:48:52;;;;;;;0.90;0.40;;;19.10;67.90;;;;;;5118633;28;20043;-70
2021/06/26 01:51:18;;;;;;;2.58;0.47;;;18.90;69.40;;;;;;5118852;28;20308;-71
2021/06/26 01:53:44;;;;;;;0.95;0.40;;;18.70;70.40;;;;;;5118746;28;20027;-70
2021/06/26 01:56:13;;;;;;;6.25;0.50;;;18.50;71.70;;;;;;5118706;28;20034;-70
2021/06/26 01:58:39;;;;;;;1.17;0.50;;;18.40;71.50;;;;;;5118378;28;20500;-70
2021/06/26 02:01:05;;;;;;;1.88;0.60;;;18.30;71.90;;;;;;5118543;28;20085;-70
2021/06/26 02:03:30;;;;;;;2.05;0.50;;;18.20;72.80;;;;;;5118250;28;20027;-70
2021/06/26 02:05:56;;;;;;;2.38;0.45;;;18.00;72.30;;;;;;5118512;28;20027;-70
2021/06/26 02:08:22;;;;;;;0.75;0.32;;;18.00;71.40;;;;;;5118492;28;20167;-70
2021/06/26 02:10:47;;;;;;;1.85;0.60;;;18.10;68.90;;;;;;5118165;28;20422;-70
2021/06/26 02:13:13;;;;;;;0.60;0.30;;;18.40;68.20;;;;;;5117946;28;20035;-70
2021/06/26 02:15:39;;;;;;;1.48;0.38;;;18.60;66.80;;;;;;5118344;28;20080;-70
2021/06/26 02:18:04;;;;;;;0.82;0.30;;;18.80;65.90;;;;;;5118277;28;20032;-70
2021/06/26 02:20:30;;;;;;;1.27;0.40;;;18.90;65.70;;;;;;5118251;28;20028;-70
2021/06/26 02:22:56;;;;;;;0.63;0.30;;;18.90;66.40;;;;;;5117797;28;20019;-70
2021/06/26 02:25:21;;;;;;;0.82;0.30;;;18.90;65.70;;;;;;5117835;28;20027;-70
2021/06/26 02:27:47;;;;;;;1.02;0.30;;;19.00;64.50;;;;;;5118133;28;20069;-70
2021/06/26 02:30:13;;;;;;;0.40;0.20;;;19.20;64.10;;;;;;5118101;28;20051;-70
2021/06/26 02:32:40;;;;;;;0.60;0.20;;;19.30;63.80;;;;;;5117971;28;20024;-70
2021/06/26 02:35:07;;;;;;;0.32;0.20;;;19.40;62.70;;;;;;5117697;28;20031;-70
2021/06/26 02:37:33;;;;;;;2.20;0.30;;;19.50;62.20;;;;;;5117611;28;20111;-70
2021/06/26 02:39:59;;;;;;;0.50;0.30;;;19.60;61.70;;;;;;5117945;28;20031;-70
2021/06/26 02:42:25;;;;;;;0.75;0.20;;;19.70;60.90;;;;;;5117795;28;20027;-70
2021/06/26 02:44:51;;;;;;;4.15;0.30;;;19.80;61.20;;;;;;5117862;28;20153;-70
2021/06/26 02:47:18;;;;;;;0.63;0.20;;;19.90;60.30;;;;;;5117444;28;20411;-70
2021/06/26 02:49:44;;;;;;;0.30;0.20;;;20.00;60.60;;;;;;5117777;28;20028;-70
2021/06/26 02:52:09;;;;;;;0.85;0.20;;;20.00;60.30;;;;;;5117392;28;20031;-70
2021/06/26 02:54:35;;;;;;;3.03;0.40;;;20.00;60.80;;;;;;5117446;28;20036;-70
2021/06/26 02:57:01;;;;;;;1.05;0.40;;;20.00;61.60;;;;;;5117302;28;20034;-70
2021/06/26 02:59:27;;;;;;;0.98;0.22;;;19.90;61.30;;;;;;5117617;28;20032;-70
2021/06/26 03:01:53;;;;;;;0.82;0.40;;;19.90;62.20;;;;;;5117526;28;20364;-70
2021/06/26 03:04:19;;;;;;;0.80;0.40;;;19.80;62.00;;;;;;5117312;28;20031;-70
2021/06/26 03:06:45;;;;;;;2.20;0.17;;;19.80;62.20;;;;;;5117528;28;20354;-70
2021/06/26 03:09:11;;;;;;;1.90;0.20;;;19.80;62.40;;;;;;5117532;28;20080;-70
2021/06/26 03:11:36;;;;;;;4.03;0.40;;;19.80;62.20;;;;;;5117507;28;20315;-70
2021/06/26 03:14:02;;;;;;;0.47;0.28;;;19.80;61.80;;;;;;5117594;28;20036;-70
2021/06/26 03:16:28;;;;;;;1.35;0.30;;;19.90;61.10;;;;;;5117397;28;20031;-70
2021/06/26 03:18:53;;;;;;;1.35;0.80;;;19.90;61.90;;;;;;5117402;28;20070;-70
2021/06/26 03:21:19;;;;;;;0.85;0.30;;;20.00;62.70;;;;;;5117067;28;20342;-70
2021/06/26 03:23:45;;;;;;;0.93;0.43;;;19.90;63.00;;;;;;5117053;28;20024;-70
2021/06/26 03:26:10;;;;;;;0.93;0.20;;;19.80;63.00;;;;;;5117308;28;20024;-70
2021/06/26 03:28:37;;;;;;;0.50;0.20;;;19.70;64.30;;;;;;5117027;28;20073;-70
2021/06/26 03:31:04;;;;;;;1.00;0.30;;;19.50;65.20;;;;;;5117322;28;20012;-70
2021/06/26 03:33:30;;;;;;;1.00;0.40;;;19.40;66.70;;;;;;5117251;28;20031;-70
2021/06/26 03:35:56;;;;;;;0.32;0.17;;;19.30;67.90;;;;;;5117281;28;20099;-70
2021/06/26 03:38:22;;;;;;;0.43;0.30;;;19.10;68.00;;;;;;5116799;28;20067;-70
2021/06/26 03:40:49;;;;;;;0.45;0.20;;;18.90;68.90;;;;;;5117215;28;20023;-70
2021/06/26 03:43:15;;;;;;;0.80;0.30;;;18.80;69.70;;;;;;5116922;28;20070;-70
2021/06/26 03:45:40;;;;;;;1.88;0.40;;;18.60;70.90;;;;;;5118948;28;20059;-70
2021/06/26 03:48:06;;;;;;;0.77;0.40;;;18.50;72.70;;;;;;5121262;28;20036;-70
2021/06/26 03:50:33;;;;;;;0.30;0.20;;;18.50;72.40;;;;;;5121197;28;20316;-70
2021/06/26 03:52:58;;;;;;;0.20;0.20;;;18.40;70.90;;;;;;5120852;28;20031;-70
2021/06/26 03:55:24;;;;;;;0.63;0.20;;;18.40;67.50;;;;;;5120767;28;20027;-70
2021/06/26 03:57:50;;;;;;;0.40;0.30;;;18.50;68.20;;;;;;5121082;28;20077;-70
2021/06/26 04:00:16;;;;;;;0.60;0.20;;;18.60;68.30;;;;;;5120993;28;20043;-70
2021/06/26 04:02:42;;;;;;;0.45;0.35;;;18.70;68.00;;;;;;5120853;28;20028;-70
2021/06/26 04:05:08;;;;;;;1.83;0.38;;;18.70;68.40;;;;;;5120909;28;20463;-70
2021/06/26 04:07:33;;;;;;;0.82;0.50;;;18.70;69.30;;;;;;5120879;28;20027;-70
2021/06/26 04:09:59;;;;;;;0.70;0.40;;;18.60;69.10;;;;;;5120831;28;20019;-70
2021/06/26 04:12:25;;;;;;;0.55;0.30;;;18.50;70.50;;;;;;5120780;28;20320;-70
2021/06/26 04:14:50;;;;;;;0.98;0.30;;;18.40;70.50;;;;;;5120979;28;20421;-70
2021/06/26 04:17:16;;;;;;;1.00;0.43;;;18.40;70.20;;;;;;5120602;28;20032;-70
2021/06/26 04:19:42;;;;;;;0.65;0.30;;;18.40;70.00;;;;;;5120561;28;20484;-70
2021/06/26 04:22:07;;;;;;;3.00;0.70;;;18.50;69.90;;;;;;5120194;28;20405;-70
2021/06/26 04:24:33;;;;;;;3.03;0.50;;;18.50;70.10;;;;;;5120580;28;20070;-70
2021/06/26 04:26:59;;;;;;;1.25;0.50;;;18.50;69.50;;;;;;5120133;28;20439;-70
2021/06/26 04:29:25;;;;;;;2.38;0.40;;;18.60;69.50;;;;;;5120146;28;20099;-69
2021/06/26 04:31:51;;;;;;;3.00;0.63;;;18.70;69.00;;;;;;5120409;28;20384;-70
2021/06/26 04:34:17;;;;;;;1.60;0.47;;;18.90;69.10;;;;;;5120065;28;20024;-70
2021/06/26 04:36:44;;;;;;;0.43;0.30;;;19.00;69.20;;;;;;5119778;28;20039;-70
2021/06/26 04:39:10;;;;;;;0.77;0.40;;;18.90;69.90;;;;;;5120006;28;20027;-70
2021/06/26 04:41:36;;;;;;;1.00;0.40;;;18.80;69.00;;;;;;5120143;28;20080;-70
2021/06/26 04:44:02;;;;;;;5.22;0.65;;;18.90;69.40;;;;;;5120258;28;20024;-70
2021/06/26 04:46:28;;;;;;;1.60;0.55;;;19.00;69.70;;;;;;5120065;28;20028;-70
2021/06/26 04:48:54;;;;;;;0.70;0.32;;;18.90;69.40;;;;;;5119762;28;20023;-70
2021/06/26 04:51:19;;;;;;;3.42;0.50;;;18.90;69.40;;;;;;5119719;28;20035;-70
2021/06/26 04:53:45;;;;;;;0.80;0.40;;;18.90;68.60;;;;;;5119946;28;20031;-70
2021/06/26 04:56:11;;;;;;;0.88;0.50;;;19.10;68.80;;;;;;5118702;28;20031;-70
2021/06/26 04:58:37;;;;;;;1.55;0.63;;;19.10;67.90;;;;;;5119271;28;20059;-70
2021/06/26 05:01:03;;;;;;;0.95;0.40;;;19.10;68.30;;;;;;5119759;28;20073;-70
2021/06/26 05:03:28;;;;;;;6.10;0.75;;;19.10;68.10;;;;;;5119809;28;20024;-70
2021/06/26 05:05:54;;;;;;;0.52;0.30;;;19.20;68.00;;;;;;5119392;28;20041;-70
2021/06/26 05:08:20;;;;;;;1.45;0.40;;;19.20;69.00;;;;;;5119423;28;20055;-70
2021/06/26 05:10:46;;;;;;;0.82;0.30;;;19.10;68.80;;;;;;5119669;28;20039;-70
2021/06/26 05:13:12;;;;;;;1.65;0.50;;;19.20;68.30;;;;;;5119601;28;20032;-70
2021/06/26 05:15:40;;;;;;;5.25;1.17;;;19.30;68.60;;;;;;5119238;28;20081;-70
2021/06/26 05:18:06;;;;;;;2.05;0.38;;;19.40;68.10;;;;;;5119298;28;20020;-70
2021/06/26 05:20:31;;;;;;;1.83;0.40;;;19.50;68.10;;;;;;5119465;28;20027;-70
2021/06/26 05:22:57;;;;;;;1.02;0.30;;;19.70;66.50;;;;;;5119333;28;20059;-70
2021/06/26 05:25:23;;;;;;;2.08;0.30;;;19.90;66.40;;;;;;5119364;28;20029;-70
2021/06/26 05:27:48;;;;;;;1.02;0.40;;;20.10;65.30;;;;;;5119355;28;20019;-70
2021/06/26 05:30:14;;;;;;;2.63;0.50;;;20.10;65.90;;;;;;5118969;28;20054;-70
2021/06/26 05:32:40;;;;;;;1.80;0.32;;;20.00;66.10;;;;;;5119226;28;20077;-70
2021/06/26 05:35:07;;;;;;;1.55;0.43;;;20.10;65.10;;;;;;5119178;28;20028;-70
2021/06/26 05:37:33;;;;;;;1.05;0.38;;;20.20;65.30;;;;;;5118805;28;20046;-70
2021/06/26 05:39:59;;;;;;;0.82;0.30;;;20.30;64.70;;;;;;5118802;28;20408;-70
2021/06/26 05:42:24;;;;;;;1.02;0.47;;;20.40;65.40;;;;;;5118953;28;20028;-70
2021/06/26 05:44:50;;;;;;;3.50;0.40;;;20.50;64.80;;;;;;5119196;28;20357;-70
2021/06/26 05:47:16;;;;;;;0.80;0.30;;;20.60;64.80;;;;;;5118583;28;20023;-70
2021/06/26 05:49:42;;;;;;;1.33;0.30;;;20.80;64.80;;;;;;5118811;28;20077;-70
2021/06/26 05:52:07;;;;;;;1.75;0.30;;;20.90;64.70;;;;;;5118524;28;20031;-70
2021/06/26 05:54:33;;;;;;;4.13;0.50;;;21.00;63.90;;;;;;5118806;28;20020;-70
2021/06/26 05:56:59;;;;;;;1.38;0.40;;;21.10;64.30;;;;;;5118692;28;20027;-70
2021/06/26 05:59:25;;;;;;;3.17;0.52;;;21.30;63.00;;;;;;5118404;28;20061;-70
2021/06/26 06:01:51;;;;;;;0.88;0.30;;;21.50;63.00;;;;;;5118258;28;20023;-70
2021/06/26 06:04:16;;;;;;;2.55;0.30;;;21.80;61.90;;;;;;5118341;28;20051;-70
2021/06/26 06:06:42;;;;;;;1.63;0.20;;;22.20;61.20;;;;;;5118190;28;20016;-70
2021/06/26 06:09:08;;;;;;;2.67;0.30;;;22.80;60.70;;;;;;5117891;28;20027;-70
2021/06/26 06:11:34;;;;;;;1.33;0.30;;;23.40;59.90;;;;;;5118124;28;20027;-70
2021/06/26 06:14:00;;;;;;;0.20;0.20;;;24.00;59.90;;;;;;5118183;28;20466;-70
2021/06/26 06:16:26;;;;;;;0.40;0.20;;;24.40;58.90;;;;;;5118319;28;20024;-70
2021/06/26 06:18:52;;;;;;;1.50;0.30;;;24.70;58.40;;;;;;5118011;28;20415;-70
2021/06/26 06:21:19;;;;;;;1.08;0.30;;;25.10;56.40;;;;;;5117849;28;20059;-70
2021/06/26 06:23:44;;;;;;;1.23;0.20;;;25.70;55.10;;;;;;5118187;28;20024;-70
2021/06/26 06:26:11;;;;;;;0.55;0.30;;;26.40;52.00;;;;;;5118186;28;20521;-70
2021/06/26 06:28:37;;;;;;;0.73;0.40;;;26.70;49.70;;;;;;5118154;28;20353;-70
2021/06/26 06:31:03;;;;;;;0.60;0.32;;;27.20;51.40;;;;;;5117794;28;20111;-70
2021/06/26 06:33:29;;;;;;;0.70;0.35;;;27.70;50.80;;;;;;5117764;28;20034;-70
2021/06/26 06:35:55;;;;;;;0.95;0.40;;;28.50;51.40;;;;;;5117667;28;20024;-70
2021/06/26 06:38:21;;;;;;;1.40;0.30;;;29.10;49.30;;;;;;5117574;28;20047;-71
2021/06/26 06:40:46;;;;;;;0.80;0.20;;;28.80;49.10;;;;;;5117939;28;20031;-71
2021/06/26 06:43:12;;;;;;;1.05;0.40;;;28.70;49.40;;;;;;5117798;28;20032;-69
2021/06/26 06:45:38;;;;;;;0.45;0.20;;;28.90;49.90;;;;;;5117554;28;20023;-69
2021/06/26 06:48:04;;;;;;;0.68;0.17;;;29.20;48.50;;;;;;5117812;28;20026;-69
2021/06/26 06:50:30;;;;;;;0.77;0.30;;;29.20;48.50;;;;;;5117489;28;20024;-69
2021/06/26 06:53:00;;;;;;;1.13;0.20;;;28.90;48.90;;;;;;5117736;28;20027;-70
2021/06/26 06:55:25;;;;;;;1.13;0.22;;;28.90;49.10;;;;;;5117709;28;20080;-70
2021/06/26 06:57:51;;;;;;;0.82;0.30;;;28.80;49.20;;;;;;5117398;28;20035;-70
2021/06/26 07:00:17;;;;;;;1.10;0.20;;;28.90;48.90;;;;;;5117691;28;20050;-70
2021/06/26 07:02:43;;;;;;;0.40;0.20;;;29.20;50.10;;;;;;5117482;28;20020;-70
2021/06/26 07:05:09;;;;;;;0.63;0.20;;;29.50;48.90;;;;;;5117246;28;20315;-70
2021/06/26 07:07:35;;;;;;;0.50;0.20;;;29.60;48.60;;;;;;5117570;28;20360;-70
2021/06/26 07:10:01;;;;;;;0.88;0.20;;;29.30;49.10;;;;;;5117533;28;20024;-70
2021/06/26 07:12:27;;;;;;;2.55;0.52;;;29.50;49.40;;;;;;5117116;28;20442;-71
2021/06/26 07:14:52;;;;;;;5.97;0.30;;;29.40;50.10;;;;;;5117219;28;20077;-70
2021/06/26 07:17:18;;;;;;;0.45;0.22;;;29.50;50.30;;;;;;5117674;28;20032;-71
2021/06/26 07:19:44;;;;;;;0.68;0.30;;;29.60;49.70;;;;;;5116668;28;20043;-71
2021/06/26 07:22:09;;;;;;;0.85;0.35;;;29.80;47.70;;;;;;5117020;28;20411;-71
2021/06/26 07:24:35;;;;;;;0.35;0.20;;;30.10;47.10;;;;;;5117155;28;20039;-71
2021/06/26 07:27:01;;;;;;;2.90;0.30;;;30.30;48.90;;;;;;5117297;28;20028;-70
2021/06/26 07:29:26;;;;;;;0.52;0.30;;;30.30;46.60;;;;;;5117019;28;20447;-71
2021/06/26 07:31:52;;;;;;;1.40;0.30;;;30.30;46.20;;;;;;5117307;28;20047;-71
2021/06/26 07:34:18;;;;;;;1.65;0.40;;;30.70;46.70;;;;;;5117023;28;20297;-71
2021/06/26 07:36:43;;;;;;;1.20;0.68;;;30.90;47.00;;;;;;5116996;28;20024;-71
2021/06/26 07:39:09;;;;;;;1.30;0.43;;;30.80;44.80;;;;;;5117287;28;20027;-71
2021/06/26 07:41:35;;;;;;;0.63;0.20;;;30.30;47.40;;;;;;5117143;28;20031;-71
2021/06/26 07:44:01;;;;;;;1.23;0.20;;;30.20;45.40;;;;;;5117329;28;20080;-71
2021/06/26 07:46:26;;;;;;;0.95;0.30;;;29.80;46.90;;;;;;5117125;28;20024;-71
2021/06/26 07:48:52;;;;;;;1.23;0.30;;;29.80;48.30;;;;;;5117157;28;20468;-71
2021/06/26 07:51:18;;;;;;;0.77;0.30;;;29.80;47.30;;;;;;5117135;28;20293;-71
2021/06/26 07:53:44;;;;;;;0.40;0.30;;;29.70;47.00;;;;;;5117103;28;20024;-71
2021/06/26 07:56:10;;;;;;;1.45;0.30;;;30.00;48.00;;;;;;5116760;28;20434;-71
2021/06/26 07:58:35;;;;;;;2.15;0.30;;;30.00;47.30;;;;;;5117069;28;20028;-71
2021/06/26 08:01:01;;;;;;;0.65;0.20;;;30.10;48.40;;;;;;5117029;28;20354;-71
2021/06/26 08:03:27;;;;;;;0.93;0.52;;;30.20;48.10;;;;;;5116479;28;20039;-71
2021/06/26 08:05:53;;;;;;;1.45;0.22;;;29.90;49.20;;;;;;5116927;28;20016;-71
2021/06/26 08:08:20;;;;;;;1.05;0.22;;;29.90;48.10;;;;;;5116689;28;20097;-71
2021/06/26 08:10:47;;;;;;;0.88;0.22;;;29.90;48.50;;;;;;5116968;28;20319;-71
2021/06/26 08:13:14;;;;;;;2.65;0.30;;;30.00;50.50;;;;;;5116699;28;20392;-71
2021/06/26 08:15:41;;;;;;;0.93;0.30;;;29.90;48.50;;;;;;5116598;28;20027;-71
2021/06/26 08:18:08;;;;;;;0.47;0.20;;;30.10;49.50;;;;;;5116893;28;20072;-71
2021/06/26 08:20:34;;;;;;;0.45;0.20;;;30.60;48.50;;;;;;5116545;28;20031;-71
2021/06/26 08:23:01;;;;;;;1.63;0.30;;;30.60;49.30;;;;;;5116748;28;20080;-71
2021/06/26 08:25:27;;;;;;;0.50;0.30;;;30.70;47.80;;;;;;5116490;28;20023;-71
2021/06/26 08:27:53;;;;;;;0.95;0.30;;;30.80;48.20;;;;;;5116364;28;20031;-71
2021/06/26 08:30:20;;;;;;;1.33;0.40;;;31.00;46.30;;;;;;5116778;28;20023;-71
2021/06/26 08:32:46;;;;;;;2.08;0.28;;;31.10;45.50;;;;;;5120272;28;20031;-71
2021/06/26 08:35:13;;;;;;;2.60;0.30;;;31.20;47.70;;;;;;5120038;28;20022;-71
2021/06/26 08:37:39;;;;;;;1.70;0.30;;;31.20;45.90;;;;;;5120007;28;20074;-71
2021/06/26 08:40:06;;;;;;;2.42;0.40;;;31.20;45.50;;;;;;5120317;28;20035;-71
2021/06/26 08:42:32;;;;;;;1.35;0.30;;;31.20;48.60;;;;;;5119850;28;20034;-71
2021/06/26 08:45:00;;;;;;;0.93;0.40;;;30.80;47.00;;;;;;5120187;28;20016;-71
2021/06/26 08:47:27;;;;;;;1.25;0.30;;;30.50;46.50;;;;;;5120146;28;20028;-71
2021/06/26 08:49:53;;;;;;;1.33;0.38;;;30.80;47.10;;;;;;5120108;28;20024;-71
2021/06/26 08:52:19;;;;;;;0.95;0.32;;;30.60;47.80;;;;;;5120029;28;20020;-71
2021/06/26 08:54:48;;;;;;;2.13;0.40;;;30.70;48.30;;;;;;5120098;28;20044;-71
2021/06/26 08:57:24;;;;;;;2.63;0.30;;;30.70;47.90;;;;;;5119905;28;20103;-71
2021/06/26 08:59:50;;;;;;;0.70;0.30;;;30.70;50.70;;;;;;5119656;28;20028;-71
2021/06/26 09:02:22;;;;;;;1.27;0.40;;;30.90;49.90;;;;;;5119794;28;20069;-71
2021/06/26 09:04:49;;;;;;;0.35;0.22;;;30.80;46.80;;;;;;5119860;28;20024;-71
2021/06/26 09:07:14;;;;;;;2.72;0.50;;;30.70;49.30;;;;;;5119713;28;20076;-71
2021/06/26 09:09:40;;;;;;;2.58;0.60;;;30.80;49.70;;;;;;5119689;28;20031;-71
2021/06/26 09:12:08;;;;;;;1.15;0.60;;;31.10;49.30;;;;;;5119655;28;20425;-71
2021/06/26 09:14:36;;;;;;;0.90;0.50;;;31.20;50.30;;;;;;5119832;28;20031;-71
2021/06/26 09:17:03;;;;;;;0.93;0.40;;;31.20;49.20;;;;;;5119511;28;20035;-71
2021/06/26 09:19:30;;;;;;;1.92;0.45;;;31.20;50.50;;;;;;5119188;28;20032;-71
2021/06/26 09:21:59;;;;;;;0.85;0.40;;;31.40;51.50;;;;;;5119102;28;20084;-71
2021/06/26 09:24:35;;;;;;;1.52;0.52;;;31.40;49.70;;;;;;5119466;28;20019;-71
2021/06/26 09:27:00;;;;;;;1.88;0.55;;;31.50;49.00;;;;;;5119359;28;20027;-71
2021/06/26 09:29:26;;;;;;;1.10;0.45;;;31.80;49.50;;;;;;5119049;28;20480;-71
2021/06/26 09:32:01;;;;;;;2.63;0.68;;;31.90;50.20;;;;;;5119291;28;20028;-71
2021/06/26 09:34:41;;;;;;;1.80;0.68;;;32.00;48.30;;;;;;5118956;28;20039;-71
2021/06/26 09:37:12;;;;;;;1.75;0.50;;;32.20;49.50;;;;;;5118659;28;20122;-71
2021/06/26 09:39:42;;;;;;;1.90;0.70;;;32.30;49.10;;;;;;5118808;28;20030;-71
2021/06/26 09:42:29;;;;;;;3.83;0.65;;;32.60;50.40;;;;;;5118378;28;20042;-71
2021/06/26 09:44:59;;;;;;;2.63;0.50;;;32.60;48.10;;;;;;5118907;28;20073;-71
2021/06/26 09:47:25;;;;;;;1.00;0.40;;;32.50;48.40;;;;;;5118996;28;20308;-71
2021/06/26 09:49:51;;;;;;;1.77;0.75;;;32.30;50.00;;;;;;5118656;28;20019;-71
2021/06/26 09:52:16;;;;;;;1.33;0.52;;;32.20;49.10;;;;;;5118514;28;20035;-70
2021/06/26 09:54:42;;;;;;;3.42;0.63;;;32.10;48.70;;;;;;5118867;28;20024;-70
2021/06/26 09:57:07;;;;;;;2.72;0.70;;;32.30;52.00;;;;;;5118716;28;20411;-71
2021/06/26 09:59:34;;;;;;;1.13;0.43;;;32.10;48.40;;;;;;5118386;28;20476;-71
2021/06/26 10:02:01;;;;;;;3.25;0.70;;;32.00;49.90;;;;;;5118278;28;20495;-70
2021/06/26 10:04:27;;;;;;;3.90;0.60;;;32.00;50.40;;;;;;5118667;28;20055;-71
2021/06/26 10:06:54;;;;;;;2.13;0.60;;;32.20;51.50;;;;;;5118557;28;20024;-71
2021/06/26 10:09:20;;;;;;;3.22;0.70;;;32.40;47.40;;;;;;5118530;28;20020;-71
2021/06/26 10:11:47;;;;;;;2.03;0.77;;;32.50;50.40;;;;;;5118129;28;20043;-70
2021/06/26 10:14:13;;;;;;;2.45;0.52;;;32.40;49.80;;;;;;5118605;28;20057;-71
2021/06/26 10:16:41;;;;;;;1.65;0.57;;;32.60;51.20;;;;;;5117607;28;20146;-71
2021/06/26 10:19:12;;;;;;;2.05;0.70;;;32.60;52.00;;;;;;5125010;27;20105;-71
2021/06/26 10:21:38;;;;;;;1.67;0.63;;;32.70;50.00;;;;;;5120336;28;20035;-70
2021/06/26 10:24:13;;;;;;;4.82;0.65;;;32.70;49.60;;;;;;5118271;28;20027;-71
2021/06/26 10:26:41;;;;;;;2.35;0.70;;;32.70;52.90;;;;;;5117863;28;20095;-71
2021/06/26 10:29:07;;;;;;;2.30;0.63;;;32.90;49.90;;;;;;5118163;28;20020;-71
2021/06/26 10:31:41;;;;;;;1.70;0.60;;;32.90;51.20;;;;;;5117862;28;20318;-71
2021/06/26 10:34:12;;;;;;;1.45;0.60;;;32.80;46.10;;;;;;5117846;28;20443;-71
2021/06/26 10:36:39;;;;;;;1.30;0.50;;;32.60;47.20;;;;;;5117842;28;20368;-71
2021/06/26 10:39:28;;;;;;;1.50;0.57;;;32.60;50.70;;;;;;5118062;28;20023;-71
2021/06/26 10:41:59;;;;;;;1.67;0.50;;;32.50;47.80;;;;;;5117601;28;20032;-71
2021/06/26 10:44:25;;;;;;;2.72;0.77;;;32.50;49.30;;;;;;5118130;28;20048;-71
2021/06/26 10:46:51;;;;;;;2.65;0.40;;;32.30;49.00;;;;;;5117852;28;20409;-71
2021/06/26 10:49:27;;;;;;;2.15;0.50;;;32.30;46.70;;;;;;5117823;28;20020;-71
2021/06/26 10:51:52;;;;;;;1.65;0.68;;;32.30;52.40;;;;;;5117491;28;20430;-71
2021/06/26 10:54:21;;;;;;;3.15;0.60;;;32.20;48.80;;;;;;5116968;28;20016;-71
2021/06/26 10:56:48;;;;;;;1.75;0.50;;;32.30;46.10;;;;;;5117612;28;20062;-71
2021/06/26 10:59:16;;;;;;;4.22;0.65;;;32.60;50.00;;;;;;5117681;28;20356;-71
2021/06/26 11:02:04;;;;;;;2.35;0.43;;;32.70;49.90;;;;;;5117595;28;20081;-71
2021/06/26 11:04:31;;;;;;;2.83;0.70;;;33.00;49.20;;;;;;5117377;28;20065;-71
2021/06/26 11:07:08;;;;;;;1.98;0.70;;;33.10;49.90;;;;;;5117254;28;20447;-71
2021/06/26 11:09:39;;;;;;;1.77;0.52;;;33.10;46.00;;;;;;5117270;28;20019;-71
2021/06/26 11:12:10;;;;;;;2.95;0.43;;;33.00;53.40;;;;;;5117192;28;20476;-71
2021/06/26 11:14:35;;;;;;;2.35;0.70;;;33.00;49.80;;;;;;5117699;28;20069;-72
2021/06/26 11:17:01;;;;;;;1.58;0.50;;;33.10;49.00;;;;;;5117435;28;20028;-72
2021/06/26 11:19:33;;;;;;;0.95;0.50;;;33.20;50.20;;;;;;5117093;28;20416;-72
2021/06/26 11:22:00;;;;;;;1.35;0.70;;;33.00;47.50;;;;;;5117378;28;20077;-72
2021/06/26 11:24:34;;;;;;;2.83;0.60;;;32.60;45.60;;;;;;5117416;28;20020;-72
2021/06/26 11:26:59;;;;;;;1.35;0.50;;;32.20;50.90;;;;;;5116997;28;20476;-70
2021/06/26 11:29:37;;;;;;;2.72;0.90;;;32.20;51.40;;;;;;5117018;28;20019;-70
2021/06/26 11:32:18;;;;;;;2.67;0.60;;;32.20;49.80;;;;;;5117350;28;20047;-70
2021/06/26 11:34:51;;;;;;;1.02;0.43;;;32.20;54.20;;;;;;5117339;28;20106;-70
2021/06/26 11:37:17;;;;;;;1.15;0.50;;;32.00;50.20;;;;;;5116770;28;20439;-70
2021/06/26 11:39:43;;;;;;;2.53;0.60;;;31.50;49.10;;;;;;5116912;28;20073;-70
2021/06/26 11:42:20;;;;;;;3.15;0.55;;;31.20;53.00;;;;;;5116852;28;20089;-70
2021/06/26 11:44:47;;;;;;;3.22;0.60;;;31.30;52.30;;;;;;5117439;28;20032;-71
2021/06/26 11:47:13;;;;;;;2.50;0.60;;;31.30;50.70;;;;;;5117113;28;20088;-70
2021/06/26 11:49:44;;;;;;;1.00;0.63;;;31.30;52.40;;;;;;5117128;28;20105;-70
2021/06/26 11:52:15;;;;;;;6.45;0.60;;;31.30;51.60;;;;;;5116762;28;20055;-71
2021/06/26 11:54:43;;;;;;;2.40;0.80;;;31.20;52.10;;;;;;5116848;28;20020;-70
2021/06/26 11:57:13;;;;;;;3.25;0.57;;;30.80;51.30;;;;;;5116771;28;20038;-71
2021/06/26 11:59:44;;;;;;;3.30;0.60;;;30.80;55.70;;;;;;5117071;28;20037;-71
2021/06/26 12:02:11;;;;;;;2.03;0.73;;;30.70;54.50;;;;;;5116944;28;20031;-70
2021/06/26 12:04:38;;;;;;;2.63;1.08;;;30.60;54.10;;;;;;5116754;28;20020;-70
2021/06/26 12:07:06;;;;;;;1.27;0.60;;;30.60;54.10;;;;;;5119650;28;20312;-70
2021/06/26 12:09:32;;;;;;;2.45;0.95;;;30.40;51.40;;;;;;5120880;28;20027;-70
2021/06/26 12:11:58;;;;;;;2.95;0.68;;;30.20;53.50;;;;;;5120825;28;20035;-70
2021/06/26 12:14:30;;;;;;;2.05;0.60;;;30.20;54.70;;;;;;5120991;28;20024;-70
2021/06/26 12:17:03;;;;;;;2.97;0.80;;;30.00;54.10;;;;;;5120758;28;20036;-70
2021/06/26 12:19:33;;;;;;;1.65;0.57;;;29.80;57.70;;;;;;5120674;28;20035;-70
2021/06/26 12:21:59;;;;;;;2.75;0.75;;;29.90;55.20;;;;;;5120962;28;20533;-70
2021/06/26 12:24:35;;;;;;;2.15;0.70;;;29.90;52.90;;;;;;5120688;28;20315;-70
2021/06/26 12:27:23;;;;;;;2.53;0.60;;;29.70;53.10;;;;;;5120573;28;20036;-70
2021/06/26 12:29:58;;;;;;;3.00;0.80;;;29.70;56.90;;;;;;5120248;28;20024;-70
2021/06/26 12:32:26;;;;;;;3.43;0.80;;;29.70;56.70;;;;;;5120520;28;20319;-70
2021/06/26 12:34:53;;;;;;;2.25;0.95;;;29.60;53.20;;;;;;5120427;28;20401;-70
2021/06/26 12:37:33;;;;;;;2.53;1.00;;;29.50;56.00;;;;;;5119830;28;20439;-70
2021/06/26 12:40:03;;;;;;;1.50;0.60;;;29.50;56.10;;;;;;5120032;28;20061;-70
2021/06/26 12:42:28;;;;;;;1.90;0.70;;;29.40;57.60;;;;;;5120063;28;20024;-70
2021/06/26 12:44:56;;;;;;;1.35;0.65;;;29.30;55.60;;;;;;5120186;28;20028;-72
2021/06/26 12:47:22;;;;;;;5.35;1.00;;;29.30;57.30;;;;;;5119888;28;20016;-69